Hauptseite
METAR-TAF:

METAR-TAF

Flughäfen :

Militärflugplatz Dübendorf

Dübendorf, Schweiz

Breite: 47-23-55N, Länge: 8-38-53E, Höhe: 448 m

Beobachtung

Neuester Wetterbericht von vor 47 Minuten, um 01:50 UTC
Windstille
Temperatur 17°C
Luftfeuchtigkeit 100%
Luftdruck 1013 hPa
Sichtweite: 5000 m
Aufgelockert bewölkt in der Höhe von 9500 ft
Regenschauer, feuchter Dunst

METAR: LSMD 250150Z AUTO 00000KT 5000NDV -SHRA BR SCT095 17/17 Q1013 RESHRA RMK

Zeit: 04:37 (02:37 UTC)


TAF: fehlend

Wetterbeobachtungen und Prognosen von mehr als 4000 Flughäfen (METAR und TAF Bericht).

Die verfügbaren Stationen werden durch gelbe und rote Markierungen auf der Karte dargestellt.

Führen Sie die Maus auf sie, um den Namen der Station zu sehen.

Darauf klicken, um die Beobachtung von Wetterbeobachtungen und Prognosen zu sehen.

Um die Karte zu ändern : klicken Sie auf den grünen Tasten mit einem schwarzen Kreuz Zum Vergrößern, auf den grünen Button mit einem Gedankenstrich zu verkleinern, oder auf die grünen Pfeile für benachbarte Karten.


METAR-TAF: